sensor_id;sensor_type;location;lat;lon;timestamp;pressure;altitude;pressure_sealevel;temperature;humidity
72370;BME280;60343;-32.030;115.880;2022-09-03T00:00:14;101726.63;;;13.15;83.51
72370;BME280;60343;-32.030;115.880;2022-09-03T00:02:44;101716.03;;;13.14;83.46
72370;BME280;60343;-32.030;115.880;2022-09-03T00:05:22;101704.47;;;13.21;83.26
72370;BME280;60343;-32.030;115.880;2022-09-03T00:07:59;101700.09;;;13.20;83.70
72370;BME280;60343;-32.030;115.880;2022-09-03T00:10:34;101712.69;;;13.20;82.51
72370;BME280;60343;-32.030;115.880;2022-09-03T00:13:09;101708.84;;;13.22;83.43
72370;BME280;60343;-32.030;115.880;2022-09-03T00:15:40;101707.31;;;13.20;83.87
72370;BME280;60343;-32.030;115.880;2022-09-03T00:18:11;101706.97;;;13.23;83.98
72370;BME280;60343;-32.030;115.880;2022-09-03T00:20:43;101714.03;;;13.24;83.77
72370;BME280;60343;-32.030;115.880;2022-09-03T00:23:17;101706.28;;;13.29;83.40
72370;BME280;60343;-32.030;115.880;2022-09-03T00:25:51;101700.75;;;13.39;83.06
72370;BME280;60343;-32.030;115.880;2022-09-03T00:28:27;101686.31;;;13.48;82.41
72370;BME280;60343;-32.030;115.880;2022-09-03T00:31:08;101690.81;;;13.63;82.67
72370;BME280;60343;-32.030;115.880;2022-09-03T00:33:39;101691.13;;;13.77;82.16
72370;BME280;60343;-32.030;115.880;2022-09-03T00:36:14;101684.72;;;13.86;81.05
72370;BME280;60343;-32.030;115.880;2022-09-03T00:38:43;101692.75;;;13.94;81.33
72370;BME280;60343;-32.030;115.880;2022-09-03T00:41:20;101686.34;;;14.03;81.22
72370;BME280;60343;-32.030;115.880;2022-09-03T00:44:13;101682.13;;;14.00;80.27
72370;BME280;60343;-32.030;115.880;2022-09-03T00:46:48;101681.59;;;14.13;80.29
72370;BME280;60343;-32.030;115.880;2022-09-03T00:49:35;101690.81;;;14.18;81.10
72370;BME280;60343;-32.030;115.880;2022-09-03T00:52:19;101684.75;;;14.25;79.78
72370;BME280;60343;-32.030;115.880;2022-09-03T00:54:54;101689.63;;;14.37;78.50
72370;BME280;60343;-32.030;115.880;2022-09-03T00:57:32;101677.25;;;14.51;79.30
72370;BME280;60343;-32.030;115.880;2022-09-03T01:00:10;101672.16;;;14.56;78.45
72370;BME280;60343;-32.030;115.880;2022-09-03T01:02:55;101677.31;;;14.66;78.16
72370;BME280;60343;-32.030;115.880;2022-09-03T01:05:45;101667.28;;;14.82;78.04
72370;BME280;60343;-32.030;115.880;2022-09-03T01:08:29;101672.56;;;14.98;76.99
72370;BME280;60343;-32.030;115.880;2022-09-03T01:11:04;101659.38;;;15.03;75.26
72370;BME280;60343;-32.030;115.880;2022-09-03T01:13:40;101663.31;;;15.16;75.08
72370;BME280;60343;-32.030;115.880;2022-09-03T01:16:26;101666.53;;;15.34;75.05
72370;BME280;60343;-32.030;115.880;2022-09-03T01:19:03;101662.47;;;15.38;74.38
72370;BME280;60343;-32.030;115.880;2022-09-03T01:21:54;101653.94;;;15.49;74.56
72370;BME280;60343;-32.030;115.880;2022-09-03T01:24:58;101655.91;;;15.55;71.72
72370;BME280;60343;-32.030;115.880;2022-09-03T01:27:40;101652.34;;;15.55;73.41
72370;BME280;60343;-32.030;115.880;2022-09-03T01:30:18;101655.91;;;15.55;71.71
72370;BME280;60343;-32.030;115.880;2022-09-03T01:32:50;101641.84;;;15.60;72.31
72370;BME280;60343;-32.030;115.880;2022-09-03T01:35:26;101647.06;;;15.76;72.66
72370;BME280;60343;-32.030;115.880;2022-09-03T01:38:10;101648.88;;;15.83;72.99
72370;BME280;60343;-32.030;115.880;2022-09-03T01:40:44;101639.06;;;15.82;72.05
72370;BME280;60343;-32.030;115.880;2022-09-03T01:43:24;101622.16;;;15.74;71.59
72370;BME280;60343;-32.030;115.880;2022-09-03T01:46:04;101637.69;;;15.72;71.20
72370;BME280;60343;-32.030;115.880;2022-09-03T01:48:43;101631.06;;;15.74;70.73
72370;BME280;60343;-32.030;115.880;2022-09-03T01:51:18;101627.25;;;15.69;70.70
72370;BME280;60343;-32.030;115.880;2022-09-03T01:54:02;101619.97;;;15.55;72.69
72370;BME280;60343;-32.030;115.880;2022-09-03T01:56:44;101627.63;;;15.66;72.95
72370;BME280;60343;-32.030;115.880;2022-09-03T01:59:21;101624.19;;;15.57;72.42
72370;BME280;60343;-32.030;115.880;2022-09-03T02:02:01;101623.19;;;15.50;71.99
72370;BME280;60343;-32.030;115.880;2022-09-03T02:04:33;101627.44;;;15.67;72.40
72370;BME280;60343;-32.030;115.880;2022-09-03T02:07:01;101624.84;;;15.74;72.15
72370;BME280;60343;-32.030;115.880;2022-09-03T02:09:29;101616.19;;;15.78;71.99
72370;BME280;60343;-32.030;115.880;2022-09-03T02:12:00;101619.16;;;15.69;72.18
72370;BME280;60343;-32.030;115.880;2022-09-03T02:14:30;101621.75;;;15.62;71.59
72370;BME280;60343;-32.030;115.880;2022-09-03T02:17:05;101606.69;;;15.53;71.67
72370;BME280;60343;-32.030;115.880;2022-09-03T02:19:34;101613.75;;;15.54;71.46
72370;BME280;60343;-32.030;115.880;2022-09-03T02:22:02;101612.78;;;15.47;71.52
72370;BME280;60343;-32.030;115.880;2022-09-03T02:24:31;101608.22;;;15.48;71.54
72370;BME280;60343;-32.030;115.880;2022-09-03T02:26:58;101601.81;;;15.49;71.04
72370;BME280;60343;-32.030;115.880;2022-09-03T02:29:26;101582.72;;;15.50;70.84
72370;BME280;60343;-32.030;115.880;2022-09-03T02:31:54;101598.59;;;15.53;71.61
72370;BME280;60343;-32.030;115.880;2022-09-03T02:34:27;101601.56;;;15.58;69.97
72370;BME280;60343;-32.030;115.880;2022-09-03T02:36:55;101608.72;;;15.66;70.37
72370;BME280;60343;-32.030;115.880;2022-09-03T02:39:23;101596.25;;;15.65;70.59
72370;BME280;60343;-32.030;115.880;2022-09-03T02:41:54;101593.81;;;15.70;70.64
72370;BME280;60343;-32.030;115.880;2022-09-03T02:44:23;101599.03;;;15.71;70.82
72370;BME280;60343;-32.030;115.880;2022-09-03T02:46:54;101592.34;;;15.67;70.24
72370;BME280;60343;-32.030;115.880;2022-09-03T02:49:29;101592.16;;;15.69;69.44
72370;BME280;60343;-32.030;115.880;2022-09-03T02:51:59;101576.72;;;15.77;70.91
72370;BME280;60343;-32.030;115.880;2022-09-03T02:54:27;101578.38;;;15.78;70.77
72370;BME280;60343;-32.030;115.880;2022-09-03T02:56:55;101574.72;;;15.86;71.43
72370;BME280;60343;-32.030;115.880;2022-09-03T02:59:23;101582.84;;;15.86;70.97
72370;BME280;60343;-32.030;115.880;2022-09-03T03:01:51;101575.75;;;15.85;70.21
72370;BME280;60343;-32.030;115.880;2022-09-03T03:04:18;101572.75;;;15.95;70.84
72370;BME280;60343;-32.030;115.880;2022-09-03T03:06:52;101576.22;;;15.88;70.54
72370;BME280;60343;-32.030;115.880;2022-09-03T03:09:19;101576.22;;;15.88;71.94
72370;BME280;60343;-32.030;115.880;2022-09-03T03:11:47;101575.97;;;15.83;69.91
72370;BME280;60343;-32.030;115.880;2022-09-03T03:14:15;101571.75;;;15.81;69.65
72370;BME280;60343;-32.030;115.880;2022-09-03T03:16:43;101578.38;;;15.78;70.92
72370;BME280;60343;-32.030;115.880;2022-09-03T03:19:10;101566.19;;;15.82;70.33
72370;BME280;60343;-32.030;115.880;2022-09-03T03:21:38;101561.34;;;15.78;68.97
72370;BME280;60343;-32.030;115.880;2022-09-03T03:24:11;101579.97;;;15.73;69.98
72370;BME280;60343;-32.030;115.880;2022-09-03T03:26:39;101566.75;;;15.78;70.09
72370;BME280;60343;-32.030;115.880;2022-09-03T03:29:07;101564.03;;;15.78;70.54
72370;BME280;60343;-32.030;115.880;2022-09-03T03:31:35;101562.63;;;15.82;69.96
72370;BME280;60343;-32.030;115.880;2022-09-03T03:34:03;101555.84;;;15.86;70.27
72370;BME280;60343;-32.030;115.880;2022-09-03T03:36:32;101559.53;;;16.00;71.06
72370;BME280;60343;-32.030;115.880;2022-09-03T03:39:00;101559.16;;;16.03;71.41
72370;BME280;60343;-32.030;115.880;2022-09-03T03:41:34;101552.91;;;16.02;70.79
72370;BME280;60343;-32.030;115.880;2022-09-03T03:44:04;101550.44;;;15.86;71.83
72370;BME280;60343;-32.030;115.880;2022-09-03T03:46:33;101548.97;;;15.83;72.13
72370;BME280;60343;-32.030;115.880;2022-09-03T03:49:01;101545.16;;;15.78;71.24
72370;BME280;60343;-32.030;115.880;2022-09-03T03:51:29;101543.66;;;15.75;72.36
72370;BME280;60343;-32.030;115.880;2022-09-03T03:53:57;101539.38;;;15.66;72.73
72370;BME280;60343;-32.030;115.880;2022-09-03T03:56:26;101520.38;;;15.60;72.15
72370;BME280;60343;-32.030;115.880;2022-09-03T03:58:59;101523.38;;;15.65;72.97
72370;BME280;60343;-32.030;115.880;2022-09-03T04:01:27;101516.94;;;15.66;72.32
72370;BME280;60343;-32.030;115.880;2022-09-03T04:03:55;101514.22;;;15.80;72.45
72370;BME280;60343;-32.030;115.880;2022-09-03T04:06:24;101507.22;;;15.86;71.05
72370;BME280;60343;-32.030;115.880;2022-09-03T04:08:51;101495.88;;;16.12;69.91
72370;BME280;60343;-32.030;115.880;2022-09-03T04:11:21;101490.63;;;16.25;69.21
72370;BME280;60343;-32.030;115.880;2022-09-03T04:13:49;101492.38;;;16.54;68.54
72370;BME280;60343;-32.030;115.880;2022-09-03T04:16:23;101476.41;;;16.87;67.52
72370;BME280;60343;-32.030;115.880;2022-09-03T04:18:51;101471.84;;;17.15;66.38
72370;BME280;60343;-32.030;115.880;2022-09-03T04:21:21;101466.31;;;17.30;65.43
72370;BME280;60343;-32.030;115.880;2022-09-03T04:23:50;101464.19;;;17.66;64.87
72370;BME280;60343;-32.030;115.880;2022-09-03T04:26:19;101459.06;;;17.97;64.98
72370;BME280;60343;-32.030;115.880;2022-09-03T04:28:47;101457.84;;;18.00;64.17
72370;BME280;60343;-32.030;115.880;2022-09-03T04:31:21;101442.13;;;17.76;63.75
72370;BME280;60343;-32.030;115.880;2022-09-03T04:33:49;101453.19;;;17.74;64.03
72370;BME280;60343;-32.030;115.880;2022-09-03T04:36:18;101439.13;;;17.57;63.86
72370;BME280;60343;-32.030;115.880;2022-09-03T04:38:47;101440.72;;;17.39;65.53
72370;BME280;60343;-32.030;115.880;2022-09-03T04:41:17;101450.34;;;17.48;64.57
72370;BME280;60343;-32.030;115.880;2022-09-03T04:43:45;101434.25;;;17.33;64.43
72370;BME280;60343;-32.030;115.880;2022-09-03T04:46:13;101424.69;;;17.37;63.95
72370;BME280;60343;-32.030;115.880;2022-09-03T04:48:48;101429.16;;;17.58;63.64
72370;BME280;60343;-32.030;115.880;2022-09-03T04:51:17;101419.03;;;17.86;63.13
72370;BME280;60343;-32.030;115.880;2022-09-03T04:53:46;101409.47;;;17.97;62.76
72370;BME280;60343;-32.030;115.880;2022-09-03T04:56:15;101414.28;;;17.95;62.59
72370;BME280;60343;-32.030;115.880;2022-09-03T04:58:44;101415.34;;;18.14;62.35
72370;BME280;60343;-32.030;115.880;2022-09-03T05:01:16;101412.41;;;18.22;61.70
72370;BME280;60343;-32.030;115.880;2022-09-03T05:03:50;101397.00;;;18.29;61.90
72370;BME280;60343;-32.030;115.880;2022-09-03T05:06:17;101386.97;;;17.96;60.54
72370;BME280;60343;-32.030;115.880;2022-09-03T05:08:48;101397.56;;;17.78;62.40
72370;BME280;60343;-32.030;115.880;2022-09-03T05:11:16;101391.72;;;17.81;62.97
72370;BME280;60343;-32.030;115.880;2022-09-03T05:13:47;101398.88;;;18.09;61.89
72370;BME280;60343;-32.030;115.880;2022-09-03T05:16:14;101392.19;;;18.11;61.49
72370;BME280;60343;-32.030;115.880;2022-09-03T05:18:50;101387.41;;;18.00;60.12
72370;BME280;60343;-32.030;115.880;2022-09-03T05:21:18;101395.50;;;17.87;61.19
72370;BME280;60343;-32.030;115.880;2022-09-03T05:23:47;101390.72;;;17.89;60.89
72370;BME280;60343;-32.030;115.880;2022-09-03T05:26:16;101389.25;;;17.93;61.79
72370;BME280;60343;-32.030;115.880;2022-09-03T05:28:45;101383.00;;;17.92;61.17
72370;BME280;60343;-32.030;115.880;2022-09-03T05:31:14;101375.31;;;17.89;61.26
72370;BME280;60343;-32.030;115.880;2022-09-03T05:33:42;101383.19;;;17.91;61.71
72370;BME280;60343;-32.030;115.880;2022-09-03T05:36:18;101376.53;;;17.80;61.83
72370;BME280;60343;-32.030;115.880;2022-09-03T05:38:46;101363.84;;;17.87;60.84
72370;BME280;60343;-32.030;115.880;2022-09-03T05:41:15;101369.47;;;17.92;61.32
72370;BME280;60343;-32.030;115.880;2022-09-03T05:43:43;101370.50;;;17.85;62.02
72370;BME280;60343;-32.030;115.880;2022-09-03T05:46:12;101369.06;;;17.89;61.23
72370;BME280;60343;-32.030;115.880;2022-09-03T05:48:40;101361.34;;;17.79;62.06
72370;BME280;60343;-32.030;115.880;2022-09-03T05:51:09;101354.66;;;17.75;62.14
72370;BME280;60343;-32.030;115.880;2022-09-03T05:53:43;101354.44;;;17.70;62.05
72370;BME280;60343;-32.030;115.880;2022-09-03T05:56:12;101357.56;;;17.74;62.71
72370;BME280;60343;-32.030;115.880;2022-09-03T05:58:42;101363.19;;;17.79;61.63
72370;BME280;60343;-32.030;115.880;2022-09-03T06:01:12;101368.63;;;17.85;62.48
72370;BME280;60343;-32.030;115.880;2022-09-03T06:03:41;101363.63;;;17.82;62.07
72370;BME280;60343;-32.030;115.880;2022-09-03T06:06:09;101366.75;;;17.79;62.05
72370;BME280;60343;-32.030;115.880;2022-09-03T06:08:43;101358.81;;;17.78;61.96
72370;BME280;60343;-32.030;115.880;2022-09-03T06:11:11;101369.25;;;17.74;61.67
72370;BME280;60343;-32.030;115.880;2022-09-03T06:13:38;101366.41;;;17.41;62.41
72370;BME280;60343;-32.030;115.880;2022-09-03T06:16:06;101351.41;;;17.39;62.99
72370;BME280;60343;-32.030;115.880;2022-09-03T06:18:34;101367.00;;;17.37;62.73
72370;BME280;60343;-32.030;115.880;2022-09-03T06:21:03;101357.84;;;17.38;62.55
72370;BME280;60343;-32.030;115.880;2022-09-03T06:23:31;101363.00;;;17.26;63.39
72370;BME280;60343;-32.030;115.880;2022-09-03T06:26:10;101370.69;;;17.16;63.49
72370;BME280;60343;-32.030;115.880;2022-09-03T06:28:39;101371.47;;;17.03;64.35
72370;BME280;60343;-32.030;115.880;2022-09-03T06:31:09;101369.59;;;17.04;64.20
72370;BME280;60343;-32.030;115.880;2022-09-03T06:33:37;101369.72;;;16.89;65.30
72370;BME280;60343;-32.030;115.880;2022-09-03T06:36:06;101363.25;;;16.90;64.25
72370;BME280;60343;-32.030;115.880;2022-09-03T06:38:35;101370.94;;;16.87;64.19
72370;BME280;60343;-32.030;115.880;2022-09-03T06:41:12;101363.31;;;16.97;64.72
72370;BME280;60343;-32.030;115.880;2022-09-03T06:43:40;101359.63;;;17.11;64.66
72370;BME280;60343;-32.030;115.880;2022-09-03T06:46:10;101352.41;;;17.25;63.82
72370;BME280;60343;-32.030;115.880;2022-09-03T06:48:39;101354.69;;;17.28;63.86
72370;BME280;60343;-32.030;115.880;2022-09-03T06:51:08;101353.69;;;17.42;63.39
72370;BME280;60343;-32.030;115.880;2022-09-03T06:53:36;101349.09;;;17.36;63.24
72370;BME280;60343;-32.030;115.880;2022-09-03T06:56:11;101341.84;;;17.43;62.84
72370;BME280;60343;-32.030;115.880;2022-09-03T06:58:40;101352.25;;;17.39;63.34
72370;BME280;60343;-32.030;115.880;2022-09-03T07:01:09;101362.63;;;17.36;63.38
72370;BME280;60343;-32.030;115.880;2022-09-03T07:03:38;101357.84;;;17.38;64.06
72370;BME280;60343;-32.030;115.880;2022-09-03T07:06:07;101363.78;;;17.61;63.54
72370;BME280;60343;-32.030;115.880;2022-09-03T07:08:36;101361.00;;;17.48;63.47
72370;BME280;60343;-32.030;115.880;2022-09-03T07:11:11;101351.63;;;17.44;62.62
72370;BME280;60343;-32.030;115.880;2022-09-03T07:13:40;101355.81;;;17.53;62.84
72370;BME280;60343;-32.030;115.880;2022-09-03T07:16:10;101366.47;;;17.61;62.35
72370;BME280;60343;-32.030;115.880;2022-09-03T07:18:38;101367.13;;;17.63;62.43
72370;BME280;60343;-32.030;115.880;2022-09-03T07:21:07;101372.34;;;17.71;62.32
72370;BME280;60343;-32.030;115.880;2022-09-03T07:23:37;101357.97;;;17.64;62.88
72370;BME280;60343;-32.030;115.880;2022-09-03T07:26:14;101364.22;;;17.71;62.83
72370;BME280;60343;-32.030;115.880;2022-09-03T07:28:43;101368.38;;;17.67;62.21
72370;BME280;60343;-32.030;115.880;2022-09-03T07:31:13;101370.66;;;17.64;62.66
72370;BME280;60343;-32.030;115.880;2022-09-03T07:33:41;101370.59;;;17.50;62.81
72370;BME280;60343;-32.030;115.880;2022-09-03T07:36:10;101365.75;;;17.33;63.06
72370;BME280;60343;-32.030;115.880;2022-09-03T07:38:38;101354.47;;;17.23;63.81
72370;BME280;60343;-32.030;115.880;2022-09-03T07:41:12;101376.69;;;17.05;64.22
72370;BME280;60343;-32.030;115.880;2022-09-03T07:43:41;101378.56;;;17.04;63.82
72370;BME280;60343;-32.030;115.880;2022-09-03T07:46:09;101368.13;;;17.01;64.58
72370;BME280;60343;-32.030;115.880;2022-09-03T07:48:36;101373.75;;;17.00;64.44
72370;BME280;60343;-32.030;115.880;2022-09-03T07:51:04;101376.69;;;17.11;64.79
72370;BME280;60343;-32.030;115.880;2022-09-03T07:53:32;101384.88;;;17.25;64.46
72370;BME280;60343;-32.030;115.880;2022-09-03T07:56:05;101393.94;;;17.10;64.53
72370;BME280;60343;-32.030;115.880;2022-09-03T07:58:39;101389.63;;;17.16;64.95
72370;BME280;60343;-32.030;115.880;2022-09-03T08:01:07;101387.75;;;17.16;64.26
72370;BME280;60343;-32.030;115.880;2022-09-03T08:03:35;101394.41;;;17.21;64.94
72370;BME280;60343;-32.030;115.880;2022-09-03T08:06:05;101386.28;;;17.14;64.29
72370;BME280;60343;-32.030;115.880;2022-09-03T08:08:33;101392.03;;;16.98;65.13
72370;BME280;60343;-32.030;115.880;2022-09-03T08:11:06;101393.66;;;16.92;65.20
72370;BME280;60343;-32.030;115.880;2022-09-03T08:13:38;101399.84;;;16.86;65.94
72370;BME280;60343;-32.030;115.880;2022-09-03T08:16:06;101404.75;;;16.69;66.06
72370;BME280;60343;-32.030;115.880;2022-09-03T08:18:35;101406.91;;;16.53;66.58
72370;BME280;60343;-32.030;115.880;2022-09-03T08:21:04;101413.22;;;16.39;67.20
72370;BME280;60343;-32.030;115.880;2022-09-03T08:23:32;101411.56;;;16.38;67.54
72370;BME280;60343;-32.030;115.880;2022-09-03T08:26:00;101414.84;;;16.33;67.96
72370;BME280;60343;-32.030;115.880;2022-09-03T08:28:28;101417.22;;;16.21;67.92
72370;BME280;60343;-32.030;115.880;2022-09-03T08:31:05;101423.03;;;16.18;68.60
72370;BME280;60343;-32.030;115.880;2022-09-03T08:33:32;101415.44;;;16.07;69.24
72370;BME280;60343;-32.030;115.880;2022-09-03T08:36:00;101428.38;;;16.12;68.89
72370;BME280;60343;-32.030;115.880;2022-09-03T08:38:28;101432.09;;;16.11;69.11
72370;BME280;60343;-32.030;115.880;2022-09-03T08:41:04;101426.00;;;16.02;69.55
72370;BME280;60343;-32.030;115.880;2022-09-03T08:43:42;101436.97;;;16.01;69.33
72370;BME280;60343;-32.030;115.880;2022-09-03T08:46:25;101431.31;;;15.96;69.26
72370;BME280;60343;-32.030;115.880;2022-09-03T08:48:58;101430.44;;;15.88;69.69
72370;BME280;60343;-32.030;115.880;2022-09-03T08:51:27;101426.22;;;15.86;69.32
72370;BME280;60343;-32.030;115.880;2022-09-03T08:53:55;101429.00;;;15.93;69.98
72370;BME280;60343;-32.030;115.880;2022-09-03T08:56:26;101428.44;;;15.97;69.62
72370;BME280;60343;-32.030;115.880;2022-09-03T08:58:55;101432.81;;;15.98;69.52
72370;BME280;60343;-32.030;115.880;2022-09-03T09:01:35;101430.63;;;16.08;69.07
72370;BME280;60343;-32.030;115.880;2022-09-03T09:04:15;101434.78;;;16.11;68.93
72370;BME280;60343;-32.030;115.880;2022-09-03T09:06:51;101440.78;;;16.06;68.66
72370;BME280;60343;-32.030;115.880;2022-09-03T09:09:28;101435.00;;;16.09;69.13
72370;BME280;60343;-32.030;115.880;2022-09-03T09:12:07;101426.56;;;15.98;69.02
72370;BME280;60343;-32.030;115.880;2022-09-03T09:14:42;101425.28;;;15.94;69.73
72370;BME280;60343;-32.030;115.880;2022-09-03T09:17:29;101413.88;;;15.77;69.40
72370;BME280;60343;-32.030;115.880;2022-09-03T09:20:06;101420.22;;;15.69;69.60
72370;BME280;60343;-32.030;115.880;2022-09-03T09:22:38;101415.41;;;15.65;70.27
72370;BME280;60343;-32.030;115.880;2022-09-03T09:25:10;101417.00;;;15.59;70.49
72370;BME280;60343;-32.030;115.880;2022-09-03T09:27:44;101418.63;;;15.54;71.08
72370;BME280;60343;-32.030;115.880;2022-09-03T09:30:14;101407.53;;;15.49;71.23
72370;BME280;60343;-32.030;115.880;2022-09-03T09:32:48;101420.84;;;15.35;71.74
72370;BME280;60343;-32.030;115.880;2022-09-03T09:35:17;101418.81;;;15.37;71.63
72370;BME280;60343;-32.030;115.880;2022-09-03T09:37:49;101416.75;;;15.25;72.30
72370;BME280;60343;-32.030;115.880;2022-09-03T09:40:29;101412.59;;;15.22;72.20
72370;BME280;60343;-32.030;115.880;2022-09-03T09:43:05;101414.34;;;15.15;72.54
72370;BME280;60343;-32.030;115.880;2022-09-03T09:45:33;101416.88;;;15.17;72.26
72370;BME280;60343;-32.030;115.880;2022-09-03T09:48:08;101423.72;;;15.19;72.07
72370;BME280;60343;-32.030;115.880;2022-09-03T09:50:36;101425.34;;;15.14;72.51
72370;BME280;60343;-32.030;115.880;2022-09-03T09:53:07;101420.47;;;15.09;72.53
72370;BME280;60343;-32.030;115.880;2022-09-03T09:55:35;101425.06;;;15.09;72.58
72370;BME280;60343;-32.030;115.880;2022-09-03T09:58:06;101427.28;;;15.05;72.93
72370;BME280;60343;-32.030;115.880;2022-09-03T10:00:34;101427.28;;;15.05;72.88
72370;BME280;60343;-32.030;115.880;2022-09-03T10:03:11;101428.78;;;14.93;73.05
72370;BME280;60343;-32.030;115.880;2022-09-03T10:05:39;101433.13;;;14.94;73.52
72370;BME280;60343;-32.030;115.880;2022-09-03T10:08:19;101438.06;;;14.90;73.64
72370;BME280;60343;-32.030;115.880;2022-09-03T10:10:48;101436.94;;;14.85;73.63
72370;BME280;60343;-32.030;115.880;2022-09-03T10:13:20;101436.31;;;14.83;73.78
72370;BME280;60343;-32.030;115.880;2022-09-03T10:15:50;101438.63;;;14.86;73.64
72370;BME280;60343;-32.030;115.880;2022-09-03T10:18:37;101440.47;;;14.85;73.75
72370;BME280;60343;-32.030;115.880;2022-09-03T10:21:12;101436.59;;;14.73;74.45
72370;BME280;60343;-32.030;115.880;2022-09-03T10:23:49;101432.28;;;14.79;74.25
72370;BME280;60343;-32.030;115.880;2022-09-03T10:26:20;101440.84;;;14.68;74.56
72370;BME280;60343;-32.030;115.880;2022-09-03T10:28:51;101441.84;;;14.67;74.99
72370;BME280;60343;-32.030;115.880;2022-09-03T10:34:23;101446.03;;;14.69;74.67
72370;BME280;60343;-32.030;115.880;2022-09-03T10:36:58;101446.03;;;14.69;74.82
72370;BME280;60343;-32.030;115.880;2022-09-03T10:39:39;101445.19;;;14.69;74.85
72370;BME280;60343;-32.030;115.880;2022-09-03T10:42:23;101444.38;;;14.68;74.64
72370;BME280;60343;-32.030;115.880;2022-09-03T10:45:01;101450.78;;;14.67;74.92
72370;BME280;60343;-32.030;115.880;2022-09-03T10:47:55;101448.94;;;14.68;74.50
72370;BME280;60343;-32.030;115.880;2022-09-03T10:50:37;101443.16;;;14.71;74.52
72370;BME280;60343;-32.030;115.880;2022-09-03T10:53:16;101448.16;;;14.74;74.75
72370;BME280;60343;-32.030;115.880;2022-09-03T10:55:52;101437.19;;;14.60;75.09
72370;BME280;60343;-32.030;115.880;2022-09-03T10:58:47;101444.19;;;14.70;75.00
72370;BME280;60343;-32.030;115.880;2022-09-03T11:01:26;101434.53;;;14.75;74.48
72370;BME280;60343;-32.030;115.880;2022-09-03T11:04:05;101441.47;;;14.70;74.95
72370;BME280;60343;-32.030;115.880;2022-09-03T11:06:49;101442.69;;;14.67;74.85
72370;BME280;60343;-32.030;115.880;2022-09-03T11:09:22;101434.41;;;14.69;74.76
72370;BME280;60343;-32.030;115.880;2022-09-03T11:11:54;101432.47;;;14.63;75.38
72370;BME280;60343;-32.030;115.880;2022-09-03T11:14:31;101444.94;;;14.64;75.03
72370;BME280;60343;-32.030;115.880;2022-09-03T11:17:04;101440.06;;;14.59;75.33
72370;BME280;60343;-32.030;115.880;2022-09-03T11:19:35;101450.03;;;14.58;75.55
72370;BME280;60343;-32.030;115.880;2022-09-03T11:22:10;101446.66;;;14.56;75.73
72370;BME280;60343;-32.030;115.880;2022-09-03T11:24:39;101450.38;;;14.55;75.84
72370;BME280;60343;-32.030;115.880;2022-09-03T11:27:21;101448.34;;;14.57;75.45
72370;BME280;60343;-32.030;115.880;2022-09-03T11:29:56;101450.03;;;14.58;75.62
72370;BME280;60343;-32.030;115.880;2022-09-03T11:32:31;101455.41;;;14.58;75.48
72370;BME280;60343;-32.030;115.880;2022-09-03T11:35:14;101471.59;;;14.58;75.42
72370;BME280;60343;-32.030;115.880;2022-09-03T11:37:53;101477.78;;;14.59;75.56
72370;BME280;60343;-32.030;115.880;2022-09-03T11:40:31;101488.06;;;14.64;75.21
72370;BME280;60343;-32.030;115.880;2022-09-03T11:43:08;101494.38;;;14.71;75.16
72370;BME280;60343;-32.030;115.880;2022-09-03T11:45:38;101504.59;;;14.75;74.89
72370;BME280;60343;-32.030;115.880;2022-09-03T11:48:27;101509.25;;;14.81;74.89
72370;BME280;60343;-32.030;115.880;2022-09-03T11:50:58;101516.41;;;14.89;74.31
72370;BME280;60343;-32.030;115.880;2022-09-03T11:53:34;101511.03;;;14.89;74.71
72370;BME280;60343;-32.030;115.880;2022-09-03T11:56:16;101503.22;;;14.94;74.23
72370;BME280;60343;-32.030;115.880;2022-09-03T11:58:44;101510.50;;;14.93;74.37
72370;BME280;60343;-32.030;115.880;2022-09-03T12:01:14;101516.06;;;14.92;74.36
72370;BME280;60343;-32.030;115.880;2022-09-03T12:03:46;101525.34;;;14.89;74.55
72370;BME280;60343;-32.030;115.880;2022-09-03T12:09:34;101526.59;;;15.01;74.06
72370;BME280;60343;-32.030;115.880;2022-09-03T12:12:15;101531.81;;;15.03;73.92
72370;BME280;60343;-32.030;115.880;2022-09-03T12:14:51;101545.88;;;15.13;73.59
72370;BME280;60343;-32.030;115.880;2022-09-03T12:17:29;101552.56;;;15.17;73.92
72370;BME280;60343;-32.030;115.880;2022-09-03T12:19:59;101549.19;;;15.15;73.54
72370;BME280;60343;-32.030;115.880;2022-09-03T12:22:28;101550.69;;;15.18;73.61
72370;BME280;60343;-32.030;115.880;2022-09-03T12:25:07;101557.56;;;15.20;73.34
72370;BME280;60343;-32.030;115.880;2022-09-03T12:27:35;101553.19;;;15.19;73.41
72370;BME280;60343;-32.030;115.880;2022-09-03T12:30:12;101557.13;;;15.17;73.89
72370;BME280;60343;-32.030;115.880;2022-09-03T12:32:41;101561.78;;;15.23;73.33
72370;BME280;60343;-32.030;115.880;2022-09-03T12:35:13;101570.16;;;15.28;72.99
72370;BME280;60343;-32.030;115.880;2022-09-03T12:37:43;101565.66;;;15.20;73.13
72370;BME280;60343;-32.030;115.880;2022-09-03T12:40:23;101560.28;;;15.20;73.42
72370;BME280;60343;-32.030;115.880;2022-09-03T12:42:52;101565.38;;;15.15;73.80
72370;BME280;60343;-32.030;115.880;2022-09-03T12:45:21;101565.50;;;15.22;73.67
72370;BME280;60343;-32.030;115.880;2022-09-03T12:47:50;101566.69;;;15.19;73.50
72370;BME280;60343;-32.030;115.880;2022-09-03T12:50:19;101568.66;;;15.25;73.14
72370;BME280;60343;-32.030;115.880;2022-09-03T12:52:49;101578.31;;;15.20;73.28